createdAt,value
2019-03-28T00:01:31.948Z,25.37
2019-03-28T00:03:57.718Z,24.57
2019-03-28T00:06:23.501Z,23.13
2019-03-28T00:08:49.482Z,24.60
2019-03-28T00:11:15.261Z,21.57
2019-03-28T00:13:41.059Z,25.50
2019-03-28T00:16:06.846Z,29.53
2019-03-28T00:18:32.651Z,26.77
2019-03-28T00:20:58.427Z,27.63
2019-03-28T00:23:42.775Z,31.63
2019-03-28T00:26:08.558Z,30.97
2019-03-28T00:28:34.354Z,34.73
2019-03-28T00:31:00.251Z,26.63
2019-03-28T00:33:26.043Z,27.00
2019-03-28T00:35:51.828Z,27.17
2019-03-28T00:38:17.612Z,30.17
2019-03-28T00:40:43.399Z,35.90
2019-03-28T00:43:09.194Z,33.93
2019-03-28T00:45:35.585Z,32.43
2019-03-28T00:48:02.354Z,32.73
2019-03-28T00:50:28.199Z,39.93
2019-03-28T00:52:54.007Z,26.90
2019-03-28T00:55:19.925Z,33.97
2019-03-28T00:57:45.715Z,28.40
2019-03-28T01:00:11.687Z,32.97
2019-03-28T01:02:37.600Z,35.03
2019-03-28T01:05:04.578Z,34.27
2019-03-28T01:07:30.362Z,27.47
2019-03-28T01:09:56.167Z,30.93
2019-03-28T01:12:21.949Z,29.40
2019-03-28T01:14:47.737Z,27.63
2019-03-28T01:17:13.523Z,29.60
2019-03-28T01:19:39.312Z,33.60
2019-03-28T01:22:06.411Z,25.83
2019-03-28T01:24:32.221Z,25.73
2019-03-28T01:26:58.937Z,28.27
2019-03-28T01:29:26.942Z,27.10
2019-03-28T01:31:52.724Z,24.63
2019-03-28T01:34:18.814Z,29.93
2019-03-28T01:36:44.604Z,26.83
2019-03-28T01:39:10.391Z,27.57
2019-03-28T01:41:36.199Z,27.73
2019-03-28T01:44:01.981Z,33.67
2019-03-28T01:46:28.037Z,31.47
2019-03-28T01:48:54.666Z,29.37
2019-03-28T01:51:20.449Z,26.60
2019-03-28T01:53:46.239Z,25.83
2019-03-28T01:56:12.044Z,29.03
2019-03-28T01:58:37.827Z,33.53
2019-03-28T02:01:04.211Z,30.73
2019-03-28T02:03:30.206Z,34.20
2019-03-28T02:05:56.017Z,32.10
2019-03-28T02:08:24.663Z,36.70
2019-03-28T02:10:49.574Z,33.63
2019-03-28T02:13:15.380Z,36.60
2019-03-28T02:15:41.171Z,26.57
2019-03-28T02:18:06.956Z,27.37
2019-03-28T02:20:32.753Z,28.70
2019-03-28T02:23:00.973Z,33.57
2019-03-28T02:25:26.827Z,26.27
2019-03-28T02:27:53.120Z,28.90
2019-03-28T02:30:22.721Z,28.43
2019-03-28T02:32:49.212Z,28.70
2019-03-28T02:35:16.008Z,31.07
2019-03-28T02:37:41.781Z,31.87
2019-03-28T02:40:08.120Z,27.90
2019-03-28T02:42:33.939Z,30.30
2019-03-28T02:44:59.719Z,28.90
2019-03-28T02:47:25.500Z,32.13
2019-03-28T02:49:51.284Z,29.77
2019-03-28T02:52:17.091Z,39.10
2019-03-28T02:54:43.353Z,37.30
2019-03-28T02:57:09.152Z,36.27
2019-03-28T02:59:34.940Z,36.60
2019-03-28T03:02:00.746Z,35.27
2019-03-28T03:04:26.623Z,38.17
2019-03-28T03:06:52.428Z,33.13
2019-03-28T03:09:18.202Z,36.17
2019-03-28T03:11:44.111Z,39.93
2019-03-28T03:14:09.874Z,31.57
2019-03-28T03:16:35.674Z,31.10
2019-03-28T03:19:01.463Z,36.60
2019-03-28T03:21:27.274Z,42.10
2019-03-28T03:23:53.067Z,35.07
2019-03-28T03:26:18.857Z,37.73
2019-03-28T03:28:44.641Z,40.00
2019-03-28T03:31:10.448Z,33.13
2019-03-28T03:33:37.746Z,36.50
2019-03-28T03:36:04.102Z,29.97
2019-03-28T03:38:29.908Z,41.27
2019-03-28T03:40:55.721Z,31.67
2019-03-28T03:43:23.047Z,35.27
2019-03-28T03:45:49.181Z,43.07
2019-03-28T03:48:14.955Z,36.77
2019-03-28T03:50:40.751Z,34.77
2019-03-28T03:53:07.512Z,28.30
2019-03-28T03:55:33.426Z,31.23
2019-03-28T03:58:14.393Z,37.07
2019-03-28T04:00:30.708Z,31.67
2019-03-28T04:02:56.500Z,37.17
2019-03-28T04:05:22.279Z,33.23
2019-03-28T04:07:48.073Z,36.80
2019-03-28T04:10:13.847Z,36.87
2019-03-28T04:12:39.646Z,30.10
2019-03-28T04:15:05.606Z,34.57
2019-03-28T04:17:31.429Z,36.90
2019-03-28T04:19:57.211Z,29.83
2019-03-28T04:22:23.015Z,30.70
2019-03-28T04:24:48.825Z,31.83
2019-03-28T04:27:14.617Z,33.90
2019-03-28T04:29:40.393Z,34.93
2019-03-28T04:32:06.188Z,34.57
2019-03-28T04:34:31.977Z,31.17
2019-03-28T04:36:57.791Z,34.70
2019-03-28T04:39:23.582Z,39.47
2019-03-28T04:41:49.582Z,35.30
2019-03-28T04:44:15.670Z,39.17
2019-03-28T04:46:41.456Z,31.07
2019-03-28T04:49:07.242Z,39.70
2019-03-28T04:51:33.135Z,34.00
2019-03-28T04:53:58.916Z,34.37
2019-03-28T04:56:24.731Z,38.07
2019-03-28T04:58:50.510Z,34.80
2019-03-28T05:01:16.290Z,37.77
2019-03-28T05:03:42.086Z,33.93
2019-03-28T05:06:07.873Z,37.17
2019-03-28T05:08:33.679Z,33.13
2019-03-28T05:10:59.462Z,32.37
2019-03-28T05:13:25.243Z,31.53
2019-03-28T05:15:51.027Z,34.30
2019-03-28T05:18:16.820Z,34.67
2019-03-28T05:20:42.606Z,35.23
2019-03-28T05:23:08.430Z,35.77
2019-03-28T05:25:34.320Z,32.73
2019-03-28T05:28:00.121Z,30.07
2019-03-28T05:30:25.901Z,33.80
2019-03-28T05:32:51.712Z,31.13
2019-03-28T05:35:17.481Z,32.93
2019-03-28T05:37:43.276Z,32.10
2019-03-28T05:40:09.454Z,28.37
2019-03-28T05:42:35.290Z,29.10
2019-03-28T05:45:01.059Z,33.10
2019-03-28T05:47:26.838Z,29.23
2019-03-28T05:49:52.632Z,28.30
2019-03-28T05:52:18.411Z,28.43
2019-03-28T05:54:44.205Z,32.33
2019-03-28T05:57:09.988Z,29.97
2019-03-28T05:59:35.788Z,35.13
2019-03-28T06:02:01.563Z,23.67
2019-03-28T06:04:27.352Z,26.13
2019-03-28T06:06:53.141Z,29.87
2019-03-28T06:09:19.342Z,34.23
2019-03-28T06:11:45.436Z,34.60
2019-03-28T06:14:11.247Z,29.90
2019-03-28T06:16:37.037Z,31.23
2019-03-28T06:19:02.844Z,29.47
2019-03-28T06:21:28.627Z,31.10
2019-03-28T06:23:54.441Z,29.23
2019-03-28T06:26:20.226Z,28.50
2019-03-28T06:28:46.023Z,37.83
2019-03-28T06:31:11.800Z,31.13
2019-03-28T06:33:38.517Z,37.70
2019-03-28T06:36:04.405Z,31.57
2019-03-28T06:38:30.195Z,32.70
2019-03-28T06:40:55.992Z,35.87
2019-03-28T06:43:21.768Z,32.60
2019-03-28T06:45:47.569Z,32.07
2019-03-28T06:48:13.362Z,39.53
2019-03-28T06:50:39.164Z,30.53
2019-03-28T06:53:04.948Z,32.33
2019-03-28T06:55:30.744Z,31.30
2019-03-28T06:57:56.525Z,34.00
2019-03-28T07:00:22.323Z,38.07
2019-03-28T07:02:48.110Z,30.17
2019-03-28T07:05:13.904Z,34.50
2019-03-28T07:07:39.681Z,32.87
2019-03-28T07:10:05.876Z,32.60
2019-03-28T07:12:31.673Z,36.17
2019-03-28T07:14:59.599Z,34.50
2019-03-28T07:17:25.169Z,43.90
2019-03-28T07:19:50.943Z,37.63
2019-03-28T07:22:16.741Z,35.37
2019-03-28T07:24:42.529Z,23.17
2019-03-28T07:27:08.335Z,40.10
2019-03-28T07:29:34.114Z,26.60
2019-03-28T07:31:59.917Z,31.93
2019-03-28T07:34:25.696Z,30.73
2019-03-28T07:36:51.490Z,30.30
2019-03-28T07:39:19.063Z,20.63
2019-03-28T07:41:45.018Z,26.27
2019-03-28T07:44:10.785Z,16.60
2019-03-28T07:46:36.641Z,26.70
2019-03-28T07:49:02.469Z,25.57
2019-03-28T07:51:28.269Z,20.23
2019-03-28T07:53:54.050Z,26.60
2019-03-28T07:56:19.860Z,20.80
2019-03-28T07:58:45.631Z,20.27
2019-03-28T08:01:11.449Z,22.47
2019-03-28T08:03:39.917Z,16.83
2019-03-28T08:06:05.036Z,22.83
2019-03-28T08:08:38.753Z,20.13
2019-03-28T08:10:58.504Z,20.40
2019-03-28T08:13:24.295Z,15.40
2019-03-28T08:15:50.279Z,20.73
2019-03-28T08:18:16.078Z,17.10
2019-03-28T08:20:41.869Z,13.93
2019-03-28T08:23:07.673Z,16.30
2019-03-28T08:25:33.461Z,18.73
2019-03-28T08:27:59.252Z,15.13
2019-03-28T08:30:33.429Z,17.27
2019-03-28T08:32:59.239Z,17.30
2019-03-28T08:35:25.014Z,16.13
2019-03-28T08:37:50.911Z,14.27
2019-03-28T08:40:20.508Z,14.80
2019-03-28T08:42:46.309Z,13.30
2019-03-28T08:45:12.190Z,14.27
2019-03-28T08:47:37.990Z,13.30
2019-03-28T08:50:05.284Z,11.23
2019-03-28T08:52:31.095Z,10.30
2019-03-28T08:54:56.880Z,14.60
2019-03-28T08:57:22.689Z,13.90
2019-03-28T08:59:48.468Z,11.17
2019-03-28T09:02:14.271Z,11.10
2019-03-28T09:04:40.074Z,9.57
2019-03-28T09:07:05.889Z,11.83
2019-03-28T09:09:31.669Z,10.63
2019-03-28T09:11:57.459Z,9.40
2019-03-28T09:14:23.252Z,10.37
2019-03-28T09:16:49.027Z,9.67
2019-03-28T09:19:14.825Z,6.63
2019-03-28T09:21:40.614Z,8.17
2019-03-28T09:24:06.428Z,7.83
2019-03-28T09:26:32.217Z,10.27
2019-03-28T09:28:58.012Z,6.23
2019-03-28T09:31:23.903Z,8.60
2019-03-28T09:33:49.696Z,8.43
2019-03-28T09:36:15.488Z,12.63
2019-03-28T09:38:41.360Z,9.80
2019-03-28T09:41:07.146Z,8.87
2019-03-28T09:43:32.942Z,9.47
2019-03-28T09:46:00.350Z,9.60
2019-03-28T09:48:26.437Z,8.13
2019-03-28T09:50:52.222Z,10.97
2019-03-28T09:53:18.016Z,8.77
2019-03-28T09:55:43.796Z,9.17
2019-03-28T09:58:09.598Z,11.07
2019-03-28T10:00:35.387Z,11.57
2019-03-28T10:03:01.190Z,8.27
2019-03-28T10:05:26.978Z,11.40
2019-03-28T10:07:52.777Z,11.03
2019-03-28T10:10:18.571Z,10.23
2019-03-28T10:12:44.373Z,10.03
2019-03-28T10:15:10.260Z,8.83
2019-03-28T10:17:36.038Z,5.87
2019-03-28T10:20:01.843Z,8.17
2019-03-28T10:22:27.628Z,7.20
2019-03-28T10:24:53.427Z,8.30
2019-03-28T10:27:19.490Z,6.03
2019-03-28T10:29:45.499Z,6.33
2019-03-28T10:32:11.286Z,8.87
2019-03-28T10:34:37.186Z,6.30
2019-03-28T10:37:02.976Z,10.10
2019-03-28T10:39:28.774Z,5.90
2019-03-28T10:41:54.870Z,5.90
2019-03-28T10:44:20.965Z,7.47
2019-03-28T10:46:46.760Z,8.57
2019-03-28T10:49:12.550Z,7.30
2019-03-28T10:51:38.335Z,8.73
2019-03-28T10:54:04.133Z,9.20
2019-03-28T10:56:29.928Z,5.73
2019-03-28T10:58:55.715Z,7.80
2019-03-28T11:01:36.108Z,8.47
2019-03-28T11:03:49.224Z,7.33
2019-03-28T11:06:15.000Z,9.23
2019-03-28T11:08:40.798Z,11.20
2019-03-28T11:11:06.574Z,6.63
2019-03-28T11:13:32.379Z,8.50
2019-03-28T11:15:58.160Z,5.83
2019-03-28T11:18:23.979Z,8.17
2019-03-28T11:20:49.754Z,7.90
2019-03-28T11:23:15.566Z,8.17
2019-03-28T11:25:41.354Z,7.03
2019-03-28T11:28:07.143Z,7.40
2019-03-28T11:30:32.943Z,7.60
2019-03-28T11:32:58.736Z,7.27
2019-03-28T11:35:24.577Z,8.83
2019-03-28T11:37:50.466Z,6.67
2019-03-28T11:40:16.277Z,6.90
2019-03-28T11:42:42.048Z,6.67
2019-03-28T11:45:09.892Z,6.67
2019-03-28T11:47:35.853Z,7.03
2019-03-28T11:50:08.025Z,6.73
2019-03-28T11:52:33.907Z,4.97
2019-03-28T11:54:59.706Z,8.70
2019-03-28T11:57:25.489Z,7.23
2019-03-28T11:59:51.279Z,5.30
2019-03-28T12:02:20.379Z,5.10
2019-03-28T12:04:44.782Z,6.37
2019-03-28T12:07:10.572Z,7.90
2019-03-28T12:09:36.373Z,3.40
2019-03-28T12:12:02.187Z,5.70
2019-03-28T12:14:27.976Z,5.97
2019-03-28T12:16:53.770Z,6.53
2019-03-28T12:19:19.565Z,3.73
2019-03-28T12:21:45.383Z,6.70
2019-03-28T12:24:11.144Z,6.73
2019-03-28T12:26:37.775Z,6.50
2019-03-28T12:29:05.766Z,7.60
2019-03-28T12:31:33.254Z,7.77
2019-03-28T12:33:58.960Z,6.60
2019-03-28T12:36:24.757Z,8.37
2019-03-28T12:38:50.549Z,8.97
2019-03-28T12:41:16.354Z,8.97
2019-03-28T12:43:42.149Z,7.23
2019-03-28T12:46:07.947Z,10.10
2019-03-28T12:48:33.725Z,7.07
2019-03-28T12:51:00.745Z,7.70
2019-03-28T12:53:26.817Z,5.40
2019-03-28T12:55:52.616Z,7.03
2019-03-28T12:58:18.395Z,6.83
2019-03-28T13:00:44.191Z,9.23
2019-03-28T13:03:09.985Z,7.03
2019-03-28T13:05:35.782Z,9.07
2019-03-28T13:08:01.566Z,33.93
2019-03-28T13:10:27.532Z,9.60
2019-03-28T13:12:53.482Z,6.70
2019-03-28T13:15:19.282Z,7.17
2019-03-28T13:17:45.073Z,8.53
2019-03-28T13:20:11.552Z,7.47
2019-03-28T13:22:37.362Z,13.57
2019-03-28T13:25:05.057Z,7.17
2019-03-28T13:27:30.860Z,5.17
2019-03-28T13:29:56.650Z,7.17
2019-03-28T13:32:22.451Z,6.93
2019-03-28T13:34:48.236Z,5.93
2019-03-28T13:37:14.044Z,4.87
2019-03-28T13:39:39.832Z,5.63
2019-03-28T13:42:05.629Z,6.23
2019-03-28T13:44:31.416Z,5.13
2019-03-28T13:46:57.280Z,5.70
2019-03-28T13:49:23.079Z,5.93
2019-03-28T13:51:48.923Z,6.00
2019-03-28T13:54:14.771Z,5.90
2019-03-28T13:56:40.547Z,5.17
2019-03-28T13:59:06.348Z,5.37
2019-03-28T14:01:32.125Z,4.83
2019-03-28T14:03:57.930Z,4.43
2019-03-28T14:06:24.841Z,5.93
2019-03-28T14:08:50.981Z,6.17
2019-03-28T14:11:16.778Z,4.70
2019-03-28T14:13:42.571Z,6.30
2019-03-28T14:16:10.304Z,10.50
2019-03-28T14:18:36.107Z,6.40
2019-03-28T14:21:01.905Z,4.97
2019-03-28T14:23:27.712Z,7.93
2019-03-28T14:25:53.488Z,7.40
2019-03-28T14:28:19.285Z,5.53
2019-03-28T14:30:45.781Z,5.87
2019-03-28T14:33:15.582Z,7.03
2019-03-28T14:35:42.585Z,6.03
2019-03-28T14:38:08.373Z,6.23
2019-03-28T14:40:34.157Z,9.70
2019-03-28T14:42:59.994Z,9.90
2019-03-28T14:45:25.777Z,10.07
2019-03-28T14:47:51.580Z,8.07
2019-03-28T14:50:21.360Z,5.03
2019-03-28T14:52:47.808Z,5.67
2019-03-28T14:55:13.603Z,5.23
2019-03-28T14:57:39.495Z,5.67
2019-03-28T15:00:15.019Z,4.60
2019-03-28T15:02:40.877Z,9.83
2019-03-28T15:05:06.751Z,6.90
2019-03-28T15:07:32.541Z,8.23
2019-03-28T15:09:58.324Z,7.27
2019-03-28T15:12:24.101Z,8.83
2019-03-28T15:14:49.907Z,7.47
2019-03-28T15:17:15.715Z,7.87
2019-03-28T15:19:41.500Z,6.43
2019-03-28T15:22:07.278Z,8.83
2019-03-28T15:24:33.088Z,7.57
2019-03-28T15:26:58.892Z,8.30
2019-03-28T15:29:24.677Z,8.83
2019-03-28T15:31:50.479Z,10.63
2019-03-28T15:34:16.276Z,5.83
2019-03-28T15:36:42.276Z,7.20
2019-03-28T15:39:08.065Z,7.10
2019-03-28T15:41:33.841Z,9.80
2019-03-28T15:43:59.636Z,7.73
2019-03-28T15:46:27.878Z,6.63
2019-03-28T15:48:53.843Z,7.00
2019-03-28T15:51:19.645Z,5.50
2019-03-28T15:53:45.438Z,5.60
2019-03-28T15:56:11.228Z,6.73
2019-03-28T15:58:37.020Z,5.10
2019-03-28T16:01:02.916Z,6.03
2019-03-28T16:03:28.706Z,6.57
2019-03-28T16:05:58.431Z,6.27
2019-03-28T16:08:22.605Z,5.00
2019-03-28T16:10:48.401Z,5.10
2019-03-28T16:13:14.406Z,7.67
2019-03-28T16:15:40.256Z,5.33
2019-03-28T16:18:06.040Z,7.93
2019-03-28T16:20:31.839Z,6.03
2019-03-28T16:22:58.288Z,6.03
2019-03-28T16:25:24.521Z,6.33
2019-03-28T16:27:50.281Z,7.87
2019-03-28T16:30:19.897Z,6.43
2019-03-28T16:32:45.691Z,7.17
2019-03-28T16:35:11.593Z,6.47
2019-03-28T16:37:37.384Z,7.93
2019-03-28T16:40:04.088Z,8.50
2019-03-28T16:42:30.184Z,5.97
2019-03-28T16:44:56.136Z,8.67
2019-03-28T16:47:21.971Z,7.63
2019-03-28T16:49:47.748Z,9.47
2019-03-28T16:52:13.542Z,7.90
2019-03-28T16:54:39.329Z,7.17
2019-03-28T16:57:05.130Z,6.73
2019-03-28T16:59:30.929Z,8.00
2019-03-28T17:01:56.728Z,7.87
2019-03-28T17:04:23.054Z,8.60
2019-03-28T17:06:49.313Z,8.80
2019-03-28T17:09:15.103Z,9.23
2019-03-28T17:11:40.900Z,8.80
2019-03-28T17:14:06.682Z,9.17
2019-03-28T17:16:32.483Z,8.03
2019-03-28T17:18:58.272Z,9.70
2019-03-28T17:21:24.072Z,9.43
2019-03-28T17:23:49.874Z,8.97
2019-03-28T17:26:15.700Z,11.07
2019-03-28T17:28:41.783Z,9.97
2019-03-28T17:31:07.582Z,7.20
2019-03-28T17:33:33.366Z,8.97
2019-03-28T17:35:59.170Z,9.37
2019-03-28T17:38:24.960Z,9.63
2019-03-28T17:40:50.758Z,10.47
2019-03-28T17:43:16.560Z,13.80
2019-03-28T17:45:42.445Z,12.70
2019-03-28T17:48:08.451Z,10.57
2019-03-28T17:50:34.247Z,12.73
2019-03-28T17:53:00.051Z,11.47
2019-03-28T17:55:26.154Z,9.03
2019-03-28T17:57:51.949Z,11.20
2019-03-28T18:00:17.933Z,15.60
2019-03-28T18:02:43.734Z,13.03
2019-03-28T18:05:12.087Z,11.80
2019-03-28T18:07:37.254Z,11.67
2019-03-28T18:10:04.540Z,11.57
2019-03-28T18:12:30.640Z,12.93
2019-03-28T18:14:56.447Z,12.30
2019-03-28T18:17:22.370Z,10.97
2019-03-28T18:19:48.153Z,13.93
2019-03-28T18:22:13.951Z,9.93
2019-03-28T18:24:39.960Z,10.17
2019-03-28T18:27:06.013Z,9.23
2019-03-28T18:29:31.993Z,11.23
2019-03-28T18:31:57.785Z,12.93
2019-03-28T18:34:23.591Z,9.87
2019-03-28T18:36:49.384Z,9.70
2019-03-28T18:39:15.246Z,10.50
2019-03-28T18:41:41.062Z,11.53
2019-03-28T18:44:06.918Z,7.50
2019-03-28T18:46:32.709Z,8.00
2019-03-28T18:48:58.642Z,10.57
2019-03-28T18:51:24.429Z,8.77
2019-03-28T18:53:50.316Z,10.67
2019-03-28T18:56:16.148Z,12.43
2019-03-28T18:58:41.953Z,12.13
2019-03-28T19:01:07.860Z,9.63
2019-03-28T19:03:33.648Z,10.53
2019-03-28T19:05:59.562Z,12.47
2019-03-28T19:08:25.339Z,10.67
2019-03-28T19:10:51.276Z,9.80
2019-03-28T19:13:17.041Z,9.37
2019-03-28T19:15:42.838Z,11.37
2019-03-28T19:18:08.629Z,9.07
2019-03-28T19:20:35.852Z,8.40
2019-03-28T19:23:01.823Z,9.07
2019-03-28T19:25:27.652Z,11.40
2019-03-28T19:27:53.422Z,8.60
2019-03-28T19:30:26.156Z,9.47
2019-03-28T19:32:51.944Z,11.70
2019-03-28T19:35:17.737Z,10.07
2019-03-28T19:37:43.713Z,9.53
2019-03-28T19:40:09.820Z,14.13
2019-03-28T19:42:36.419Z,9.73
2019-03-28T19:45:04.425Z,11.27
2019-03-28T19:47:30.264Z,13.63
2019-03-28T19:49:56.062Z,12.83
2019-03-28T19:52:21.857Z,11.47
2019-03-28T19:54:47.668Z,9.87
2019-03-28T19:57:13.453Z,13.70
2019-03-28T19:59:39.248Z,10.37
2019-03-28T20:02:05.041Z,14.53
2019-03-28T20:04:30.857Z,10.50
2019-03-28T20:06:56.645Z,10.10
2019-03-28T20:09:22.442Z,14.03
2019-03-28T20:11:48.231Z,12.63
2019-03-28T20:14:14.016Z,7.83
2019-03-28T20:16:39.808Z,9.10
2019-03-28T20:19:05.602Z,9.80
2019-03-28T20:21:31.401Z,8.90
2019-03-28T20:23:57.204Z,9.73
2019-03-28T20:26:22.998Z,10.83
2019-03-28T20:28:48.786Z,14.47
2019-03-28T20:31:14.581Z,10.20
2019-03-28T20:33:40.413Z,9.67
2019-03-28T20:36:30.059Z,12.30
2019-03-28T20:38:34.366Z,9.90
2019-03-28T20:41:00.416Z,14.30
2019-03-28T20:43:26.892Z,8.43
2019-03-28T20:45:52.907Z,8.83
2019-03-28T20:48:18.690Z,14.63
2019-03-28T20:50:44.549Z,11.03
2019-03-28T20:53:10.420Z,8.47
2019-03-28T20:55:36.332Z,8.30
2019-03-28T20:58:02.825Z,8.90
2019-03-28T21:00:38.841Z,11.50
2019-03-28T21:03:04.926Z,10.73
2019-03-28T21:05:30.777Z,9.60
2019-03-28T21:07:56.560Z,10.77
2019-03-28T21:10:23.143Z,10.20
2019-03-28T21:12:48.953Z,9.93
2019-03-28T21:15:14.732Z,12.47
2019-03-28T21:17:40.529Z,10.10
2019-03-28T21:20:06.414Z,10.40
2019-03-28T21:22:32.228Z,9.97
2019-03-28T21:24:58.026Z,12.67
2019-03-28T21:27:23.819Z,12.20
2019-03-28T21:29:51.013Z,9.30
2019-03-28T21:32:17.125Z,9.40
2019-03-28T21:34:42.914Z,10.30
2019-03-28T21:37:08.706Z,14.00
2019-03-28T21:39:34.815Z,11.60
2019-03-28T21:42:00.706Z,11.00
2019-03-28T21:44:26.568Z,11.37
2019-03-28T21:46:52.385Z,8.57
2019-03-28T21:49:18.165Z,12.53
2019-03-28T21:51:45.891Z,8.93
2019-03-28T21:54:11.667Z,12.00
2019-03-28T21:56:37.446Z,11.93
2019-03-28T21:59:03.260Z,10.73
2019-03-28T22:01:29.033Z,11.00
2019-03-28T22:03:54.845Z,11.00
2019-03-28T22:06:20.925Z,9.60
2019-03-28T22:08:46.729Z,11.73
2019-03-28T22:11:12.512Z,11.73
2019-03-28T22:13:38.310Z,9.23
2019-03-28T22:16:07.384Z,11.63
2019-03-28T22:18:31.893Z,12.67
2019-03-28T22:20:57.684Z,11.93
2019-03-28T22:23:23.483Z,12.70
2019-03-28T22:25:49.297Z,11.43
2019-03-28T22:28:15.090Z,8.77
2019-03-28T22:30:40.892Z,8.73
2019-03-28T22:33:06.712Z,10.73
2019-03-28T22:35:32.496Z,10.27
2019-03-28T22:37:58.681Z,13.83
2019-03-28T22:40:24.482Z,8.90
2019-03-28T22:42:50.267Z,7.90
2019-03-28T22:45:16.061Z,13.40
2019-03-28T22:47:41.843Z,6.93
2019-03-28T22:50:07.945Z,8.07
2019-03-28T22:52:33.747Z,16.03
2019-03-28T22:54:59.571Z,10.77
2019-03-28T22:57:25.347Z,11.20
2019-03-28T22:59:51.161Z,9.20
2019-03-28T23:02:16.935Z,10.43
2019-03-28T23:04:42.737Z,11.40
2019-03-28T23:07:11.068Z,10.03
2019-03-28T23:09:36.231Z,12.27
2019-03-28T23:12:02.018Z,8.70
2019-03-28T23:14:27.821Z,9.97
2019-03-28T23:16:55.073Z,14.57
2019-03-28T23:19:21.089Z,10.83
2019-03-28T23:21:46.869Z,9.83
2019-03-28T23:24:12.696Z,10.80
2019-03-28T23:26:38.497Z,11.30
2019-03-28T23:29:04.358Z,12.70
2019-03-28T23:31:30.167Z,11.40
2019-03-28T23:33:56.248Z,13.50
2019-03-28T23:36:22.752Z,9.80
2019-03-28T23:38:48.531Z,12.93
2019-03-28T23:41:14.331Z,12.23
2019-03-28T23:43:40.117Z,9.13
2019-03-28T23:46:05.909Z,12.97
2019-03-28T23:48:31.709Z,9.97
2019-03-28T23:50:58.708Z,9.17
2019-03-28T23:53:24.637Z,10.70
2019-03-28T23:55:50.434Z,13.20
2019-03-28T23:58:16.224Z,11.17
